EST,Max TemperatureF,Mean TemperatureF,Min TemperatureF,Max Dew PointF,MeanDew PointF,Min DewpointF,Max Humidity, Mean Humidity, Min Humidity, Max Sea Level PressureIn, Mean Sea Level PressureIn, Min Sea Level PressureIn, Max VisibilityMiles, Mean VisibilityMiles, Min VisibilityMiles, Max Wind SpeedMPH, Mean Wind SpeedMPH, Max Gust SpeedMPH,PrecipitationIn, CloudCover, Events, WindDirDegrees
2014-1-1,10,0,-9,3,-5,-15,83,71,54,30.42,30.23,30.00,10,8,2,9,3,18,0.00,6,Snow,295
2014-1-2,3,-1,-5,-2,-8,-13,78,73,65,30.41,30.16,29.92,10,3,1,13,6,,0.06,8,Snow,343
2014-1-3,0,-8,-20,-11,-14,-25,78,70,47,30.41,30.03,29.83,10,5,1,13,6,22,0.02,5,Snow,330
2014-1-4,15,-5,-25,1,-13,-30,87,72,51,30.44,30.31,30.19,10,10,10,5,1,,0.00,1,,168
2014-1-5,32,15,-2,26,11,-7,89,77,48,30.30,30.19,29.97,10,10,6,12,1,,0.02,4,Rain,70
2014-1-6,48,34,21,44,29,12,93,82,58,29.94,29.42,29.21,10,7,0,18,7,30,0.36,8,Fog-Rain-Snow,235
2014-1-7,19,11,3,13,-1,-13,81,61,38,29.97,29.61,29.35,10,6,0,17,10,33,0.00,8,Snow,279
2014-1-8,16,8,0,1,-3,-6,84,65,52,30.37,30.26,30.01,10,10,6,12,7,23,0.00,6,,272
2014-1-9,18,6,-8,8,-2,-13,83,71,45,30.63,30.47,30.29,10,8,1,12,2,21,0.00,5,Snow,292
2014-1-10,23,7,-9,18,5,-16,84,77,71,30.58,30.38,30.22,10,10,2,0,0,,0.00,6,Snow,-1
2014-1-11,48,34,21,47,34,16,100,93,74,30.25,29.58,29.10,10,4,0,9,2,,0.76,8,Fog-Rain,219
2014-1-12,45,40,34,42,30,22,97,77,61,29.87,29.51,29.18,10,7,1,15,7,26,0.10,8,Rain-Snow,290
2014-1-13,44,34,25,28,24,22,88,66,43,30.02,29.92,29.80,10,10,10,8,4,22,0.00,2,,225
2014-1-14,37,34,32,37,34,27,100,94,79,29.79,29.70,29.62,10,3,0,4,0,,0.40,8,Fog-Rain,329
2014-1-15,44,36,27,34,29,25,96,81,53,29.97,29.87,29.75,10,9,5,7,3,,0.01,4,,261
2014-1-16,32,31,30,29,27,25,96,87,75,29.95,29.89,29.84,10,4,0,7,3,,0.07,8,Fog-Snow,340
2014-1-17,39,32,21,31,27,19,96,86,70,29.92,29.87,29.79,10,7,2,7,1,,0.00,6,Snow,293
2014-1-18,37,24,12,23,17,8,92,78,46,29.90,29.79,29.68,10,9,7,9,1,,0.00,2,,164
2014-1-19,28,22,15,26,20,11,92,82,63,29.68,29.50,29.38,10,4,0,14,2,24,0.05,8,Fog-Snow,249
2014-1-20,28,14,0,23,12,-10,86,76,66,29.90,29.52,29.35,10,5,0,14,7,20,0.01,7,Fog-Snow,322
2014-1-21,3,-5,-13,-9,-13,-19,82,64,50,30.09,30.03,29.84,10,10,7,9,5,20,0.00,0,,326
2014-1-22,8,-2,-13,-8,-14,-19,78,67,46,30.00,29.89,29.75,10,10,10,13,2,,0.00,1,,342
2014-1-23,9,-4,-16,-6,-12,-22,78,62,50,30.13,30.03,29.94,10,10,7,7,4,,0.00,2,,325
2014-1-24,8,-3,-14,-5,-13,-21,84,66,44,30.23,30.11,29.89,10,10,9,10,3,17,0.00,2,,297
2014-1-25,24,14,3,19,8,-5,89,69,48,29.85,29.47,29.21,10,8,1,16,5,22,0.01,8,Snow,176
2014-1-26,19,8,-2,13,-3,-17,81,61,39,29.81,29.50,29.17,10,8,0,16,7,30,0.01,5,Snow,299
2014-1-27,37,22,5,28,11,-10,89,67,37,29.91,29.57,29.38,10,6,0,16,6,30,0.05,6,Fog-Snow,284
2014-1-28,12,0,-11,-9,-12,-18,78,52,32,30.22,30.12,29.92,10,10,10,14,5,23,0.00,1,,252
2014-1-29,19,3,-13,-3,-10,-20,79,53,26,30.18,30.03,29.87,10,10,10,9,3,16,0.00,1,,277
2014-1-30,26,14,3,4,2,-2,80,62,37,30.36,30.22,30.03,10,10,10,7,2,,0.00,3,,150
2014-1-31,34,21,8,16,10,1,80,55,33,30.13,30.00,29.92,10,10,10,10,3,20,0.00,3,,262